Time;durP1;ratioP1;P1;durP2;ratioP2;P2;SDS_P1;SDS_P2;PMS_P1;PMS_P2;Temp;Humidity;BMP_temperature;BMP_pressure;BME280_temperature;BME280_humidity;BME280_pressure;Samples;Min_cycle;Max_cycle;Signal;HPM_P1;HPM_P2
2021/10/27 00:00:35;;;;;;;12.80;6.15;;;;;;;8.17;64.53;101513.76;125159;1102;104162;-79
2021/10/27 00:03:12;;;;;;;15.57;6.57;;;;;;;8.17;64.67;101517.27;125002;1102;104284;-80
2021/10/27 00:05:40;;;;;;;18.03;7.40;;;;;;;8.17;64.67;101516.38;125190;1102;104177;-80
2021/10/27 00:08:07;;;;;;;15.57;6.43;;;;;;;8.17;64.74;101508.53;125128;1102;104353;-79
2021/10/27 00:10:35;;;;;;;16.37;6.60;;;;;;;8.17;64.52;101503.30;125249;1102;104195;-80
2021/10/27 00:13:05;;;;;;;15.33;6.53;;;;;;;8.18;64.20;101500.78;125160;1102;104296;-78
2021/10/27 00:15:33;;;;;;;14.97;6.80;;;;;;;8.20;64.32;101500.88;125144;1102;104173;-79
2021/10/27 00:18:01;;;;;;;16.50;7.13;;;;;;;8.21;64.77;101495.74;125198;1102;104178;-80
2021/10/27 00:20:29;;;;;;;15.73;6.90;;;;;;;8.24;64.55;101493.31;125154;1102;104202;-80
2021/10/27 00:22:57;;;;;;;13.83;6.60;;;;;;;8.29;64.54;101490.98;125103;1102;104165;-80
2021/10/27 00:25:25;;;;;;;16.30;6.40;;;;;;;8.34;64.48;101486.03;125262;1102;104206;-79
2021/10/27 00:27:52;;;;;;;12.60;6.00;;;;;;;8.38;64.77;101491.53;125184;1102;104207;-79
2021/10/27 00:30:21;;;;;;;17.77;7.00;;;;;;;8.42;64.74;101490.00;125132;1102;104185;-80
2021/10/27 00:32:49;;;;;;;15.80;6.63;;;;;;;8.45;65.25;101487.60;125171;1102;104150;-78
2021/10/27 00:35:17;;;;;;;14.57;6.40;;;;;;;8.51;64.99;101487.05;125229;1102;104821;-79
2021/10/27 00:37:46;;;;;;;12.07;6.00;;;;;;;8.55;65.02;101487.32;125161;1102;104294;-80
2021/10/27 00:40:14;;;;;;;19.20;7.20;;;;;;;8.56;65.25;101493.48;125098;1102;104153;-80
2021/10/27 00:42:42;;;;;;;20.00;7.00;;;;;;;8.55;65.40;101489.94;125160;1102;104592;-80
2021/10/27 00:45:10;;;;;;;16.10;7.10;;;;;;;8.58;65.08;101487.50;125294;1102;104177;-80
2021/10/27 00:47:38;;;;;;;15.80;7.00;;;;;;;8.60;64.74;101488.52;125214;1102;104313;-79
2021/10/27 00:50:06;;;;;;;15.77;6.60;;;;;;;8.63;65.05;101480.85;125173;1102;104165;-80
2021/10/27 00:52:34;;;;;;;16.57;6.73;;;;;;;8.66;64.76;101480.11;125144;1102;104620;-80
2021/10/27 00:55:04;;;;;;;14.70;6.50;;;;;;;8.69;65.45;101479.41;125226;1102;103639;-79
2021/10/27 00:57:34;;;;;;;15.20;6.40;;;;;;;8.73;64.79;101476.16;125101;1101;104236;-79
2021/10/27 01:00:03;;;;;;;14.93;6.40;;;;;;;8.76;65.30;101481.58;125156;1102;104596;-79
2021/10/27 01:02:31;;;;;;;16.93;6.40;;;;;;;8.81;65.16;101485.36;125175;1102;104152;-80
2021/10/27 01:04:59;;;;;;;16.67;6.33;;;;;;;8.85;65.54;101486.43;125287;1102;104155;-79
2021/10/27 01:07:27;;;;;;;14.00;6.73;;;;;;;8.87;65.58;101483.09;125177;1102;104206;-79
2021/10/27 01:09:55;;;;;;;15.57;6.60;;;;;;;8.91;65.12;101479.86;125176;1102;104313;-80
2021/10/27 01:12:23;;;;;;;14.50;6.10;;;;;;;8.90;65.65;101472.80;124982;1102;104305;-79
2021/10/27 01:14:51;;;;;;;13.87;6.00;;;;;;;8.91;65.14;101481.55;125122;1101;104162;-79
2021/10/27 01:17:19;;;;;;;17.70;6.37;;;;;;;8.91;65.81;101476.31;125194;1102;101798;-79
2021/10/27 01:19:49;;;;;;;12.73;5.70;;;;;;;8.89;65.43;101481.46;125185;1102;104153;-80
2021/10/27 01:22:20;;;;;;;16.63;6.03;;;;;;;8.90;65.14;101478.05;125219;1102;104820;-80
2021/10/27 01:24:48;;;;;;;13.33;5.57;;;;;;;8.90;65.31;101478.05;125163;1102;104226;-80
2021/10/27 01:27:16;;;;;;;15.63;6.50;;;;;;;8.92;65.22;101470.28;125176;1102;104181;-79
2021/10/27 01:29:44;;;;;;;16.07;6.07;;;;;;;8.91;65.36;101472.00;125246;1102;104153;-79
2021/10/27 01:32:21;;;;;;;15.17;6.37;;;;;;;8.92;65.63;101471.17;125208;1102;105722;-79
2021/10/27 01:34:49;;;;;;;13.40;6.03;;;;;;;8.94;65.92;101472.19;125133;1102;104306;-80
2021/10/27 01:37:18;;;;;;;16.30;6.60;;;;;;;8.97;65.24;101468.82;125122;1102;104290;-80
2021/10/27 01:39:46;;;;;;;16.83;6.70;;;;;;;8.99;65.19;101462.87;125177;1102;104290;-79
2021/10/27 01:42:14;;;;;;;15.83;6.43;;;;;;;9.02;65.41;101458.61;125186;1102;104204;-79
2021/10/27 01:44:42;;;;;;;16.80;7.70;;;;;;;9.02;65.29;101459.50;125234;1102;104268;-79
2021/10/27 01:47:10;;;;;;;16.40;7.47;;;;;;;9.04;65.64;101459.59;125057;1102;104226;-79
2021/10/27 01:49:39;;;;;;;21.07;8.23;;;;;;;9.06;65.55;101456.26;125190;1102;104285;-79
2021/10/27 01:52:07;;;;;;;16.73;7.40;;;;;;;9.07;66.02;101467.63;125183;1102;104300;-79
2021/10/27 01:54:35;;;;;;;16.83;7.63;;;;;;;9.07;65.96;101457.15;125115;1102;104166;-78
2021/10/27 01:57:06;;;;;;;14.43;7.10;;;;;;;9.08;65.67;101464.20;125159;1102;104157;-79
2021/10/27 01:59:34;;;;;;;16.30;7.90;;;;;;;9.07;65.96;101460.69;125208;1102;104288;-79
2021/10/27 02:02:03;;;;;;;20.13;7.60;;;;;;;9.07;65.31;101457.15;125219;1102;104329;-79
2021/10/27 02:04:31;;;;;;;16.93;6.93;;;;;;;9.07;65.50;101455.45;125172;1102;104147;-79
2021/10/27 02:07:00;;;;;;;16.83;6.97;;;;;;;9.07;66.10;101451.91;125170;1102;104216;-79
2021/10/27 02:09:28;;;;;;;14.53;6.60;;;;;;;9.07;65.44;101452.84;125190;1102;104161;-79
2021/10/27 02:11:56;;;;;;;17.00;6.75;;;;;;;9.08;66.08;101452.00;125051;1102;104181;-78
2021/10/27 02:14:29;;;;;;;16.20;6.60;;;;;;;9.09;65.44;101445.07;125196;1102;104274;-79
2021/10/27 02:16:57;;;;;;;14.03;6.43;;;;;;;9.10;65.71;101446.85;125205;1102;104300;-79
2021/10/27 02:19:25;;;;;;;16.27;6.60;;;;;;;9.11;66.18;101446.05;125092;1102;104165;-79
2021/10/27 02:21:54;;;;;;;16.27;6.53;;;;;;;9.10;66.13;101441.61;125225;1102;104208;-79
2021/10/27 02:24:23;;;;;;;16.90;6.80;;;;;;;9.10;66.01;101433.76;124970;1102;104288;-80
2021/10/27 02:26:54;;;;;;;15.90;6.75;;;;;;;9.09;65.83;101442.45;125114;1102;104755;-79
2021/10/27 02:29:22;;;;;;;14.27;6.30;;;;;;;9.09;66.00;101445.07;125191;1102;104161;-79
2021/10/27 02:31:51;;;;;;;18.00;7.43;;;;;;;9.07;65.82;101447.60;125191;1102;104198;-80
2021/10/27 02:34:19;;;;;;;14.77;6.80;;;;;;;9.05;65.58;101449.20;125258;1102;104146;-79
2021/10/27 02:36:47;;;;;;;17.27;6.27;;;;;;;9.03;66.18;101450.84;125159;1102;104371;-79
2021/10/27 02:39:15;;;;;;;12.00;5.73;;;;;;;9.03;65.95;101447.34;125178;1102;104290;-79
2021/10/27 02:41:43;;;;;;;17.80;6.45;;;;;;;9.02;66.40;101445.52;125230;1102;104347;-80
2021/10/27 02:44:11;;;;;;;9.70;5.27;;;;;;;8.99;66.17;101448.86;125132;1102;104157;-80
2021/10/27 02:46:39;;;;;;;9.93;4.83;;;;;;;8.97;66.14;101454.00;125028;1102;101687;-79
2021/10/27 02:49:07;;;;;;;11.97;4.83;;;;;;;8.95;66.14;101452.13;125197;1102;104210;-80
2021/10/27 02:51:34;;;;;;;10.77;4.87;;;;;;;8.95;66.56;101459.98;125190;1102;104293;-79
2021/10/27 02:54:02;;;;;;;10.80;4.70;;;;;;;8.96;66.08;101454.84;125201;1102;104165;-80
2021/10/27 02:56:31;;;;;;;12.13;5.17;;;;;;;8.97;66.25;101461.86;125182;1102;104169;-79
2021/10/27 02:58:59;;;;;;;11.10;5.13;;;;;;;8.99;66.00;101459.33;125215;1102;104175;-79
2021/10/27 03:01:28;;;;;;;9.50;5.00;;;;;;;9.03;66.64;101460.42;125204;1101;104279;-80
2021/10/27 03:03:55;;;;;;;12.63;4.97;;;;;;;9.06;66.05;101468.45;125143;1102;104274;-79
2021/10/27 03:06:23;;;;;;;12.00;5.10;;;;;;;9.09;66.04;101473.87;125155;1102;104155;-80
2021/10/27 03:08:51;;;;;;;11.30;5.20;;;;;;;9.11;66.38;101474.84;125029;1102;104156;-79
2021/10/27 03:11:19;;;;;;;10.90;5.50;;;;;;;9.11;66.07;101473.13;125206;1102;104166;-79
2021/10/27 03:13:47;;;;;;;13.17;5.37;;;;;;;9.14;65.97;101472.41;125214;1102;104293;-80
2021/10/27 03:16:15;;;;;;;14.00;5.27;;;;;;;9.11;65.95;101475.74;125119;1102;104277;-80
2021/10/27 03:18:43;;;;;;;10.43;5.33;;;;;;;9.08;66.64;101478.18;125116;1102;104146;-81
2021/10/27 03:21:11;;;;;;;12.87;5.47;;;;;;;9.06;65.98;101479.82;125153;1102;104223;-80
2021/10/27 03:23:39;;;;;;;12.20;4.80;;;;;;;9.03;66.14;101482.27;125227;1102;104156;-80
2021/10/27 03:26:08;;;;;;;11.20;4.80;;;;;;;9.00;66.66;101476.84;125186;1102;104281;-80
2021/10/27 03:28:36;;;;;;;12.93;5.40;;;;;;;8.99;66.32;101482.89;125180;1102;104155;-79
2021/10/27 03:31:03;;;;;;;11.15;5.40;;;;;;;8.97;66.00;101476.67;125278;1102;104152;-79
2021/10/27 03:33:32;;;;;;;15.73;5.53;;;;;;;8.95;65.93;101479.20;125244;1102;104155;-80
2021/10/27 03:36:00;;;;;;;15.40;6.37;;;;;;;8.89;66.16;101478.84;125207;1102;104166;-79
2021/10/27 03:38:27;;;;;;;13.27;5.80;;;;;;;8.85;66.25;101474.27;125186;1101;104152;-79
2021/10/27 03:40:55;;;;;;;11.43;5.40;;;;;;;8.80;66.62;101488.77;125095;1102;104174;-80
2021/10/27 03:43:23;;;;;;;11.17;5.40;;;;;;;8.74;66.29;101488.41;125258;1102;104636;-79
2021/10/27 03:45:51;;;;;;;13.70;6.10;;;;;;;8.68;66.30;101490.66;125102;1102;104176;-79
2021/10/27 03:48:19;;;;;;;15.47;6.37;;;;;;;8.61;66.55;101481.56;125263;1102;101700;-79
2021/10/27 03:50:47;;;;;;;16.93;6.27;;;;;;;8.55;66.67;101481.20;125197;1102;104288;-79
2021/10/27 03:53:15;;;;;;;28.63;7.50;;;;;;;8.48;66.08;101490.41;125202;1102;104218;-78
2021/10/27 03:55:43;;;;;;;29.80;7.23;;;;;;;8.42;66.08;101484.77;125135;1102;104153;-79
2021/10/27 03:58:11;;;;;;;17.60;6.27;;;;;;;8.36;66.50;101489.62;125102;1102;112378;-79
2021/10/27 04:00:40;;;;;;;13.53;5.97;;;;;;;8.29;66.16;101493.59;125006;1102;104168;-80
2021/10/27 04:03:07;;;;;;;17.90;6.57;;;;;;;8.23;66.80;101493.22;125170;1102;104158;-79
2021/10/27 04:05:35;;;;;;;20.30;6.77;;;;;;;8.20;66.24;101485.19;125161;1102;104156;-80
2021/10/27 04:08:03;;;;;;;25.23;7.53;;;;;;;8.20;66.21;101488.70;125088;1102;104162;-79
2021/10/27 04:10:31;;;;;;;25.17;7.40;;;;;;;8.18;66.64;101489.39;125240;1102;104159;-78
2021/10/27 04:12:59;;;;;;;17.50;6.33;;;;;;;8.15;66.34;101495.36;125221;1102;104226;-79
2021/10/27 04:15:27;;;;;;;28.43;7.27;;;;;;;8.16;66.78;101496.25;125216;1102;104153;-79
2021/10/27 04:17:54;;;;;;;20.37;6.70;;;;;;;8.15;66.29;101497.98;125178;1102;105429;-79
2021/10/27 04:20:22;;;;;;;19.30;6.97;;;;;;;8.14;66.55;101501.39;125202;1102;104165;-79
2021/10/27 04:22:50;;;;;;;25.70;8.70;;;;;;;8.17;67.17;101501.58;125111;1102;104605;-78
2021/10/27 04:25:18;;;;;;;18.30;6.50;;;;;;;8.16;66.47;101507.61;125190;1102;104206;-79
2021/10/27 04:27:46;;;;;;;27.30;7.70;;;;;;;8.15;67.12;101504.89;124933;1102;104319;-79
2021/10/27 04:30:14;;;;;;;26.87;7.60;;;;;;;8.09;66.41;101506.33;124966;1102;104155;-80
2021/10/27 04:32:42;;;;;;;21.45;7.65;;;;;;;8.03;66.49;101515.52;124997;1102;104159;-79
2021/10/27 04:35:10;;;;;;;18.10;7.37;;;;;;;7.97;67.08;101515.13;125051;1102;104213;-78
2021/10/27 04:37:40;;;;;;;21.53;8.23;;;;;;;7.89;66.89;101515.55;124996;1102;104287;-79
2021/10/27 04:40:10;;;;;;;26.83;8.23;;;;;;;7.83;66.64;101516.88;125013;1105;104453;-79
2021/10/27 04:42:39;;;;;;;20.40;7.43;;;;;;;7.77;66.84;101522.61;125011;1105;104304;-79
2021/10/27 04:45:09;;;;;;;27.77;9.67;;;;;;;7.72;67.08;101518.81;124970;1105;104258;-80
2021/10/27 04:47:38;;;;;;;42.20;10.70;;;;;;;7.71;67.09;101514.38;124902;1102;104213;-80
2021/10/27 04:50:07;;;;;;;29.87;11.60;;;;;;;7.69;66.81;101510.78;124914;1102;104156;-80
2021/10/27 04:52:37;;;;;;;30.80;11.40;;;;;;;7.69;66.76;101511.67;124914;1102;104424;-80
2021/10/27 04:55:06;;;;;;;29.43;11.03;;;;;;;7.70;67.00;101513.48;124836;1102;104217;-80
2021/10/27 04:57:34;;;;;;;39.83;12.30;;;;;;;7.71;67.23;101511.77;124907;1102;104205;-80
2021/10/27 05:00:03;;;;;;;35.87;12.10;;;;;;;7.73;67.30;101518.91;125035;1102;104152;-80
2021/10/27 05:02:31;;;;;;;29.13;11.60;;;;;;;7.75;67.12;101516.39;125205;1102;104159;-79
2021/10/27 05:04:59;;;;;;;34.57;12.27;;;;;;;7.76;67.25;101519.90;125088;1102;104153;-80
2021/10/27 05:07:29;;;;;;;29.33;11.57;;;;;;;7.77;67.03;101512.16;125059;1102;104159;-78
2021/10/27 05:09:57;;;;;;;44.47;13.03;;;;;;;7.78;66.96;101513.09;125059;1102;104156;-77
2021/10/27 05:12:26;;;;;;;40.70;12.70;;;;;;;7.79;67.38;101515.80;124999;1102;104140;-78
2021/10/27 05:14:54;;;;;;;44.33;13.67;;;;;;;7.79;67.27;101514.87;125196;1102;104152;-79
2021/10/27 05:17:23;;;;;;;40.30;12.27;;;;;;;7.82;67.15;101521.21;125164;1102;104336;-78
2021/10/27 05:19:52;;;;;;;38.03;12.33;;;;;;;7.83;67.32;101517.77;125082;1102;104323;-80
2021/10/27 05:22:21;;;;;;;26.63;10.57;;;;;;;7.85;67.42;101531.86;125090;1102;104169;-79
2021/10/27 05:24:52;;;;;;;24.73;10.60;;;;;;;7.87;67.70;101530.23;125092;1102;104163;-79
2021/10/27 05:27:37;;;;;;;30.83;10.20;;;;;;;7.90;67.32;101525.20;125029;1102;104210;-79
2021/10/27 05:30:09;;;;;;;24.10;9.70;;;;;;;7.96;67.70;101527.27;124977;1102;119573;-80
2021/10/27 05:32:39;;;;;;;30.53;10.20;;;;;;;8.02;67.54;101534.61;124896;1102;104424;-79
2021/10/27 05:35:22;;;;;;;38.57;16.47;;;;;;;8.06;67.70;101531.39;125224;1102;102088;-80
2021/10/27 05:38:01;;;;;;;28.97;10.80;;;;;;;8.14;67.92;101531.87;125388;1102;104319;-81
2021/10/27 05:43:42;;;;;;;26.23;11.77;;;;;;;8.25;67.39;101536.04;125648;1093;104188;-80
2021/10/27 05:46:19;;;;;;;31.07;11.50;;;;;;;8.31;67.99;101532.91;125402;1102;104236;-79
2021/10/27 05:49:02;;;;;;;30.60;11.33;;;;;;;8.35;68.10;101529.66;125372;1102;104300;-79
2021/10/27 05:51:52;;;;;;;25.43;11.10;;;;;;;8.43;67.44;101531.02;126575;1093;101829;-79
2021/10/27 05:57:08;;;;;;;26.93;10.33;;;;;;;8.59;68.21;101536.41;126307;1102;102421;-78
2021/10/27 05:59:41;;;;;;;22.93;9.43;;;;;;;8.64;67.51;101526.22;126557;1102;101722;-80
2021/10/27 06:02:13;;;;;;;28.13;10.37;;;;;;;8.72;67.61;101532.80;126334;1102;102119;-77
2021/10/27 06:04:42;;;;;;;20.97;9.73;;;;;;;8.81;67.54;101532.47;126437;1101;101558;-79
2021/10/27 06:07:19;;;;;;;27.47;9.87;;;;;;;8.91;68.35;101537.45;126700;1101;101252;-79
2021/10/27 06:09:57;;;;;;;19.50;8.83;;;;;;;9.01;68.27;101536.27;126286;1102;101913;-80
2021/10/27 06:12:28;;;;;;;23.13;9.03;;;;;;;9.12;68.30;101536.89;126907;1101;101586;-80
2021/10/27 06:15:27;;;;;;;19.63;8.67;;;;;;;9.23;67.88;101538.41;126289;1102;101730;-81
2021/10/27 06:18:18;;;;;;;19.62;8.80;;;;;;;9.36;68.10;101545.23;126255;1105;102082;-81
2021/10/27 06:20:56;;;;;;;20.47;8.60;;;;;;;9.48;67.61;101551.19;126288;1105;101218;-78
2021/10/27 06:23:46;;;;;;;19.93;9.10;;;;;;;9.61;67.65;101546.64;126283;1105;103038;-82
2021/10/27 06:30:12;;;;;;;19.07;7.53;;;;;;;9.86;67.74;101544.58;125925;1106;101714;-79
2021/10/27 06:36:04;;;;;;;14.07;6.80;;;;;;;10.06;67.27;101548.27;125985;1108;101865;-79
2021/10/27 06:46:59;;;;;;;19.00;7.27;;;;;;;10.52;67.56;101547.26;125999;1105;101819;-80
2021/10/27 06:50:27;;;;;;;;;;;;;;;;;;;;;
2021/10/27 06:53:19;;;;;;;;;;;;;;;10.71;66.05;101542.97;125827;1108;103587;-79
2021/10/27 06:56:21;;;;;;;11.80;5.93;;;;;;;10.75;66.38;101547.54;125914;1108;102083;-80
2021/10/27 06:58:58;;;;;;;13.13;5.57;;;;;;;10.77;66.75;101552.06;126318;1105;102029;-80
2021/10/27 07:01:30;;;;;;;14.37;5.93;;;;;;;10.82;66.27;101551.41;126272;1105;101635;-80
2021/10/27 07:15:30;;;;;;;14.93;5.90;;;;;;;11.14;65.75;101543.43;125914;1105;101323;-79
2021/10/27 07:18:04;;;;;;;13.93;6.33;;;;;;;11.23;66.20;101542.97;125928;1105;101810;-77
2021/10/27 07:20:38;;;;;;;11.50;5.15;;;;;;;11.29;65.21;101543.27;125943;1105;101967;-77
2021/10/27 07:23:12;;;;;;;11.97;5.33;;;;;;;11.32;64.96;101532.02;125856;1105;101690;-77
2021/10/27 07:25:42;;;;;;;14.53;5.60;;;;;;;11.40;65.22;101527.14;125959;1104;101853;-80
2021/10/27 07:28:19;;;;;;;11.27;5.80;;;;;;;11.50;65.37;101534.66;125924;1105;102262;-80
2021/10/27 07:30:48;;;;;;;16.33;5.63;;;;;;;11.57;64.96;101534.11;125923;1105;101285;-80
2021/10/27 07:33:22;;;;;;;11.87;5.60;;;;;;;11.64;64.66;101535.29;125912;1105;103143;-80
2021/10/27 07:35:56;;;;;;;12.40;5.60;;;;;;;11.66;64.26;101528.41;125892;1109;101810;-80
2021/10/27 07:41:17;;;;;;;16.30;5.87;;;;;;;11.77;64.45;101529.80;126524;1101;101628;-81
2021/10/27 07:43:46;;;;;;;12.13;5.83;;;;;;;11.84;64.32;101530.98;126313;1102;101560;-79
2021/10/27 07:46:17;;;;;;;12.27;5.90;;;;;;;11.87;63.68;101542.57;126898;1101;102268;-78
2021/10/27 07:48:52;;;;;;;11.77;5.77;;;;;;;11.88;63.94;101540.83;126649;1101;101913;-80
2021/10/27 07:51:24;;;;;;;11.67;5.83;;;;;;;11.93;63.97;101535.81;126350;1102;101661;-79
2021/10/27 07:53:55;;;;;;;14.40;5.63;;;;;;;11.96;63.41;101544.74;126329;1102;102138;-77
2021/10/27 07:56:32;;;;;;;12.97;6.00;;;;;;;12.02;63.50;101546.77;126398;1102;101584;-78
2021/10/27 07:59:08;;;;;;;13.10;6.07;;;;;;;12.11;63.18;101549.83;126715;1102;101962;-78
2021/10/27 08:01:42;;;;;;;12.75;5.67;;;;;;;12.20;63.27;101537.09;126256;1102;101826;-79
2021/10/27 08:04:12;;;;;;;13.37;6.00;;;;;;;12.32;62.89;101543.73;126334;1102;101600;-79
2021/10/27 08:06:47;;;;;;;13.47;5.67;;;;;;;12.39;63.12;101546.72;126330;1101;101655;-78
2021/10/27 08:09:29;;;;;;;11.70;5.58;;;;;;;12.48;62.49;101550.59;127274;1101;101995;-79
2021/10/27 08:12:04;;;;;;;11.83;5.37;;;;;;;12.55;62.48;101539.51;127026;1100;101934;-80
2021/10/27 08:14:36;;;;;;;14.13;5.93;;;;;;;12.66;62.14;101537.34;126784;1101;101633;-78
2021/10/27 08:17:15;;;;;;;13.57;5.70;;;;;;;12.74;61.70;101533.30;126311;1102;101681;-80
2021/10/27 08:19:50;;;;;;;10.77;5.50;;;;;;;12.82;61.31;101531.00;126255;1102;101584;-80
2021/10/27 08:22:28;;;;;;;10.97;5.57;;;;;;;12.89;61.58;101528.70;126844;1101;101243;-79
2021/10/27 08:24:57;;;;;;;12.23;5.77;;;;;;;12.94;60.86;101531.53;126534;1102;102994;-78
2021/10/27 08:27:32;;;;;;;11.23;4.90;;;;;;;13.02;61.51;101529.22;126229;1102;101816;-80
2021/10/27 08:30:10;;;;;;;10.23;4.70;;;;;;;13.06;61.01;101539.06;126903;1101;101672;-80
2021/10/27 08:32:49;;;;;;;10.27;4.73;;;;;;;13.11;60.36;101538.41;126331;1102;101585;-79
2021/10/27 08:35:24;;;;;;;8.67;5.00;;;;;;;13.17;60.51;101537.77;126806;1101;101550;-79
2021/10/27 08:37:56;;;;;;;12.40;5.63;;;;;;;13.27;59.92;101542.56;126586;1101;103259;-80
2021/10/27 08:40:27;;;;;;;9.73;4.80;;;;;;;13.37;60.08;101538.63;126310;1102;101475;-80
2021/10/27 08:43:00;;;;;;;9.40;5.17;;;;;;;13.43;59.16;101532.69;126323;1105;101651;-80
2021/10/27 08:45:32;;;;;;;11.00;5.70;;;;;;;13.50;58.93;101540.02;126330;1102;101941;-79
2021/10/27 08:48:05;;;;;;;13.47;5.83;;;;;;;13.58;59.67;101537.69;126847;1101;101082;-79
2021/10/27 08:50:37;;;;;;;13.87;6.10;;;;;;;13.62;59.58;101527.33;126792;1101;101930;-79
2021/10/27 08:53:11;;;;;;;10.07;5.00;;;;;;;13.64;59.53;101519.47;127213;1101;101833;-80
2021/10/27 08:55:46;;;;;;;12.67;5.90;;;;;;;13.69;59.18;101522.30;126347;1102;102146;-79
2021/10/27 08:58:22;;;;;;;11.40;5.27;;;;;;;13.70;58.44;101524.99;127409;1101;101564;-80
2021/10/27 09:01:03;;;;;;;11.47;4.93;;;;;;;13.72;58.70;101536.49;127393;1101;101581;-80
2021/10/27 09:03:43;;;;;;;9.87;4.80;;;;;;;13.79;58.56;101537.63;127226;1101;101971;-79
2021/10/27 09:06:22;;;;;;;10.67;5.67;;;;;;;13.85;57.59;101532.59;126878;1101;101896;-80
2021/10/27 09:34:31;;;;;;;11.77;5.53;;;;;;;14.15;56.42;101511.76;126287;1102;101580;-81
2021/10/27 09:43:30;;;;;;;16.45;5.62;;;;;;;14.03;54.93;101504.27;126368;1102;101526;-82
2021/10/27 10:05:43;;;;;;;13.67;6.60;;;;;;;14.15;53.88;101492.39;126296;1102;101615;-83
2021/10/27 10:08:17;;;;;;;14.20;6.43;;;;;;;14.16;53.88;101484.53;126255;1101;101629;-82
2021/10/27 10:10:49;;;;;;;14.27;6.37;;;;;;;14.24;54.39;101487.42;126796;1101;101845;-83
2021/10/27 10:13:22;;;;;;;14.97;6.27;;;;;;;14.25;52.84;101498.91;126301;1102;103028;-83
2021/10/27 10:15:52;;;;;;;;;;;;;;;14.10;52.12;101497.50;126308;1102;101774;-83
2021/10/27 10:18:26;;;;;;;15.50;6.53;;;;;;;14.04;53.04;101499.91;126499;1101;101639;-82
2021/10/27 10:21:00;;;;;;;16.93;6.77;;;;;;;14.00;52.73;101497.98;126291;1102;101338;-83
2021/10/27 10:23:31;;;;;;;15.13;6.70;;;;;;;13.99;52.21;101497.09;126496;1101;101765;-83
2021/10/27 10:26:08;;;;;;;16.17;7.20;;;;;;;13.92;52.85;101492.42;126287;1102;103910;-80
2021/10/27 10:28:44;;;;;;;15.90;6.93;;;;;;;13.91;52.31;101489.72;126541;1101;101955;-78
2021/10/27 10:31:30;;;;;;;16.47;7.50;;;;;;;13.91;52.70;101497.64;126298;1102;101636;-80
2021/10/27 10:34:08;;;;;;;18.77;7.80;;;;;;;13.93;52.60;101491.59;127071;1101;101697;-81
2021/10/27 10:36:41;;;;;;;17.90;7.30;;;;;;;13.96;52.62;101498.70;126309;1102;102057;-80
2021/10/27 10:39:43;;;;;;;15.07;7.00;;;;;;;13.98;53.25;101495.29;126380;1102;101906;-80
2021/10/27 10:42:53;;;;;;;19.70;6.87;;;;;;;13.97;53.28;101487.31;126297;1102;101985;-80
2021/10/27 10:45:47;;;;;;;15.70;6.93;;;;;;;13.97;52.67;101485.56;126396;1102;101726;-81
2021/10/27 10:57:13;;;;;;;14.13;7.03;;;;;;;13.90;51.88;101486.20;126297;1102;102077;-77
2021/10/27 11:00:34;;;;;;;17.17;7.40;;;;;;;13.95;52.89;101476.70;126894;1101;101736;-79
2021/10/27 11:25:54;;;;;;;13.10;6.72;;;;;;;13.83;52.12;101450.75;126264;1105;102169;-80
2021/10/27 11:39:48;;;;;;;17.52;7.37;;;;;;;13.75;51.57;101446.93;126928;1101;101574;-80
2021/10/27 11:48:29;;;;;;;14.23;7.00;;;;;;;13.75;51.33;101449.56;126301;1102;101975;-80
2021/10/27 11:51:00;;;;;;;16.10;6.70;;;;;;;13.82;51.84;101448.05;126312;1102;102624;-79
2021/10/27 11:53:33;;;;;;;16.43;6.73;;;;;;;13.86;51.58;101446.45;127121;1101;101804;-81
2021/10/27 11:56:14;;;;;;;13.97;6.47;;;;;;;13.85;51.57;101445.52;126732;1101;102068;-80
2021/10/27 11:58:45;;;;;;;15.77;6.20;;;;;;;13.85;50.97;101442.89;127052;1101;101123;-79
2021/10/27 12:01:19;;;;;;;16.50;6.10;;;;;;;13.82;51.31;101434.86;127321;1101;101527;-78
2021/10/27 12:03:51;;;;;;;;;;;;;;;13.82;51.17;101440.13;126519;1101;102396;-78
2021/10/27 12:06:39;;;;;;;13.03;6.27;;;;;;;13.80;51.18;101444.47;126310;1102;101870;-79
2021/10/27 12:12:12;;;;;;;13.70;5.70;;;;;;;13.77;51.63;101436.44;127333;1100;101498;-79
2021/10/27 12:18:02;;;;;;;13.70;6.57;;;;;;;13.84;51.57;101427.92;126558;1102;101967;-80
2021/10/27 12:20:44;;;;;;;15.23;6.55;;;;;;;13.87;51.42;101430.67;126299;1102;101430;-82
2021/10/27 12:23:19;;;;;;;15.28;6.17;;;;;;;13.86;50.81;101439.42;126307;1102;101680;-78
2021/10/27 12:25:52;;;;;;;17.27;6.37;;;;;;;13.85;50.91;101429.70;126310;1102;101614;-79
2021/10/27 12:28:29;;;;;;;14.20;5.93;;;;;;;13.89;50.98;101434.26;127136;1101;101655;-80
2021/10/27 12:31:19;;;;;;;13.73;6.00;;;;;;;13.93;51.21;101425.62;126264;1105;118111;-78
2021/10/27 12:33:52;;;;;;;14.70;5.63;;;;;;;13.98;50.34;101425.80;126338;1102;101216;-79
2021/10/27 12:36:28;;;;;;;14.40;5.97;;;;;;;14.01;51.17;101424.16;126906;1101;101600;-82
2021/10/27 12:39:13;;;;;;;16.23;5.90;;;;;;;14.05;50.75;101430.44;126298;1102;101963;-81
2021/10/27 12:41:57;;;;;;;13.30;5.63;;;;;;;14.11;49.87;101420.09;127235;1101;101617;-80
2021/10/27 12:44:29;;;;;;;15.73;5.63;;;;;;;14.13;49.98;101426.36;127250;1102;102933;-81
2021/10/27 12:47:15;;;;;;;16.23;6.10;;;;;;;14.14;49.88;101432.52;127016;1101;101758;-81
2021/10/27 12:50:02;;;;;;;14.53;5.50;;;;;;;14.15;48.54;101434.33;127158;1101;101557;-80
2021/10/27 12:52:39;;;;;;;15.07;5.80;;;;;;;14.14;48.22;101435.16;126769;1102;101681;-80
2021/10/27 12:55:22;;;;;;;16.63;5.50;;;;;;;14.13;48.04;101429.00;127225;1101;101505;-80
2021/10/27 12:58:03;;;;;;;14.50;5.93;;;;;;;14.14;48.19;101435.16;127145;1101;101993;-79
2021/10/27 13:11:52;;;;;;;14.47;6.10;;;;;;;14.19;46.64;101439.77;126386;1101;102300;-78
2021/10/27 13:30:48;;;;;;;17.37;6.40;;;;;;;14.24;47.01;101431.09;127271;1101;101503;-79
2021/10/27 13:33:22;;;;;;;17.98;6.40;;;;;;;14.21;46.44;101434.55;126370;1102;101792;-81
2021/10/27 13:35:56;;;;;;;14.43;6.70;;;;;;;14.23;46.98;101442.48;126358;1102;101668;-79
2021/10/27 13:38:32;;;;;;;15.15;6.30;;;;;;;14.22;45.85;101444.24;126351;1102;103661;-78
2021/10/27 13:41:05;;;;;;;16.20;6.80;;;;;;;14.17;44.30;101433.52;127008;1101;101504;-77
2021/10/27 13:43:39;;;;;;;15.80;5.92;;;;;;;14.17;45.80;101432.63;127028;1101;101604;-81
2021/10/27 13:46:28;;;;;;;16.87;6.30;;;;;;;14.15;44.63;101443.13;126291;1102;101729;-81
2021/10/27 14:07:56;;;;;;;15.57;6.43;;;;;;;13.94;44.11;101442.34;126271;1105;102001;-79
2021/10/27 14:10:34;;;;;;;14.23;6.37;;;;;;;13.91;43.40;101451.03;126271;1105;102223;-81
2021/10/27 14:13:14;;;;;;;14.90;6.10;;;;;;;13.89;44.00;101460.64;126296;1105;101844;-79
2021/10/27 14:18:44;;;;;;;18.30;6.60;;;;;;;13.85;44.19;101458.72;125910;1109;103089;-78
2021/10/27 14:40:31;;;;;;;23.10;8.20;;;;;;;13.49;44.72;101467.02;126185;1105;101731;-78
2021/10/27 14:58:42;;;;;;;25.30;10.00;;;;;;;13.23;44.57;101469.50;126286;1104;102129;-78
2021/10/27 15:21:32;;;;;;;21.53;8.60;;;;;;;12.73;45.42;101499.89;127027;1101;101632;-78
2021/10/27 15:24:11;;;;;;;22.33;8.77;;;;;;;12.69;45.45;101497.98;126295;1102;101729;-78
2021/10/27 15:29:33;;;;;;;20.10;7.80;;;;;;;12.60;45.86;101509.00;126671;1102;101860;-78
2021/10/27 15:34:56;;;;;;;20.77;7.83;;;;;;;12.51;45.77;101513.87;126702;1101;101691;-78
2021/10/27 15:40:26;;;;;;;22.97;9.17;;;;;;;12.41;46.04;101521.35;126875;1101;102101;-78
2021/10/27 15:43:11;;;;;;;22.90;9.60;;;;;;;12.37;45.95;101523.78;126321;1102;101827;-78
2021/10/27 15:51:13;;;;;;;29.67;11.18;;;;;;;12.20;45.92;101531.84;127342;1101;101508;-77
2021/10/27 15:53:42;;;;;;;29.60;14.00;;;;;;;12.16;46.16;101531.63;127194;1101;102128;-78